Time;durP1;ratioP1;P1;durP2;ratioP2;P2;SDS_P1;SDS_P2;PMS_P1;PMS_P2;Temp;Humidity;BMP_temperature;BMP_pressure;BME280_temperature;BME280_humidity;BME280_pressure;Samples;Min_cycle;Max_cycle;Signal;HPM_P1;HPM_P2
2022/05/21 00:02:08;;;;;;;2.92;1.70;;;;;;;22.80;41.27;100919.48;1755327;80;20980;-78
2022/05/21 00:04:41;;;;;;;2.47;1.30;;;;;;;22.80;41.31;100923.65;1755276;80;21031;-78
2022/05/21 00:07:06;;;;;;;2.72;1.40;;;;;;;22.80;41.31;100917.28;1738983;82;21028;-78
2022/05/21 00:09:32;;;;;;;2.92;1.50;;;;;;;22.79;41.28;100919.23;1708062;82;21289;-78
2022/05/21 00:11:59;;;;;;;2.83;1.65;;;;;;;22.78;41.31;100916.24;1738885;81;21533;-78
2022/05/21 00:14:25;;;;;;;3.22;1.40;;;;;;;22.80;41.30;100922.83;1708034;82;21062;-78
2022/05/21 00:16:51;;;;;;;2.33;1.62;;;;;;;22.79;41.32;100921.22;1739309;81;21044;-78
2022/05/21 00:19:17;;;;;;;4.67;1.35;;;;;;;22.78;41.32;100927.91;1738753;81;21134;-78
2022/05/21 00:21:44;;;;;;;3.87;1.50;;;;;;;22.79;41.33;100931.72;1739067;81;21610;-78
2022/05/21 00:24:10;;;;;;;1.82;1.30;;;;;;;22.78;41.32;100925.95;1739084;81;21024;-78
2022/05/21 00:26:36;;;;;;;3.08;1.25;;;;;;;22.79;41.32;100933.70;1738969;81;21001;-78
2022/05/21 00:29:03;;;;;;;2.37;1.45;;;;;;;22.79;41.31;100938.66;1715234;82;21036;-78
2022/05/21 00:31:29;;;;;;;1.87;1.40;;;;;;;22.79;41.33;100933.70;1716321;82;21044;-78
2022/05/21 00:33:55;;;;;;;2.20;1.30;;;;;;;22.79;41.32;100928.95;1735611;82;21950;-78
2022/05/21 00:36:22;;;;;;;2.00;1.42;;;;;;;22.79;41.31;100930.94;1708181;82;21094;-78
2022/05/21 00:38:48;;;;;;;3.30;1.50;;;;;;;22.79;41.31;100932.32;1765808;80;21556;-78
2022/05/21 00:41:21;;;;;;;4.25;1.32;;;;;;;22.77;41.32;100925.70;1761684;79;21078;-78
2022/05/21 00:43:52;;;;;;;2.52;1.42;;;;;;;22.79;41.32;100928.16;1755124;80;21028;-78
2022/05/21 00:46:22;;;;;;;3.22;1.50;;;;;;;22.78;41.32;100925.95;1739077;81;21570;-78
2022/05/21 00:49:19;;;;;;;3.27;1.42;;;;;;;22.78;41.29;100916.81;1739235;81;21115;-78
2022/05/21 00:51:52;;;;;;;3.17;1.62;;;;;;;22.78;41.28;100911.27;1738656;81;21091;-78
2022/05/21 00:54:21;;;;;;;1.92;1.50;;;;;;;22.76;41.28;100911.02;1708246;82;21066;-78
2022/05/21 00:57:01;;;;;;;2.55;1.37;;;;;;;22.77;41.30;100909.06;1739059;81;20993;-78
2022/05/21 01:02:13;;;;;;;2.20;1.20;;;;;;;22.76;41.27;100901.87;1736616;81;21021;-78
2022/05/21 01:04:39;;;;;;;1.70;1.20;;;;;;;22.75;41.28;100903.02;1708106;82;21078;-78
2022/05/21 01:07:06;;;;;;;3.25;1.52;;;;;;;22.76;41.27;100897.72;1735216;81;21080;-78
2022/05/21 01:09:33;;;;;;;2.80;1.47;;;;;;;22.75;41.26;100896.89;1693858;84;21025;-78
2022/05/21 01:12:02;;;;;;;2.70;1.42;;;;;;;22.76;41.27;100890.78;1688343;83;21590;-78
2022/05/21 01:14:29;;;;;;;2.33;1.40;;;;;;;22.76;41.27;100886.62;1745851;82;21064;-78
2022/05/21 01:16:55;;;;;;;1.60;1.10;;;;;;;22.75;41.26;100887.76;1739056;80;21028;-78
2022/05/21 01:19:21;;;;;;;2.02;1.30;;;;;;;22.74;41.26;100881.99;1739185;80;20969;-78
2022/05/21 01:21:47;;;;;;;1.92;1.52;;;;;;;22.75;41.24;100887.76;1739107;81;21063;-78
2022/05/21 01:24:14;;;;;;;1.62;1.20;;;;;;;22.75;41.23;100889.14;1738961;81;21083;-78
2022/05/21 01:26:40;;;;;;;2.33;1.45;;;;;;;22.74;41.26;100888.92;1739302;81;20940;-78
2022/05/21 01:29:11;;;;;;;1.80;1.20;;;;;;;22.74;41.21;100888.33;1716749;82;21067;-78
2022/05/21 01:31:39;;;;;;;3.02;1.40;;;;;;;22.74;41.21;100888.33;1738718;81;21617;-78
2022/05/21 01:34:05;;;;;;;1.62;1.17;;;;;;;22.74;41.18;100889.71;1739159;81;21186;-78
2022/05/21 01:36:31;;;;;;;3.05;1.42;;;;;;;22.74;41.17;100888.33;1716760;82;21132;-78
2022/05/21 01:38:58;;;;;;;2.55;1.45;;;;;;;22.74;41.17;100881.39;1738486;82;21063;-78
2022/05/21 01:41:24;;;;;;;2.40;1.60;;;;;;;22.74;41.18;100879.22;1739036;80;21494;-78
2022/05/21 01:46:35;;;;;;;2.35;1.37;;;;;;;22.73;41.15;100865.92;1738939;81;21574;-78
2022/05/21 01:49:02;;;;;;;3.10;1.40;;;;;;;22.73;41.14;100867.30;1739044;82;21137;-78
2022/05/21 01:51:29;;;;;;;2.72;1.52;;;;;;;22.72;41.15;100865.67;1738962;80;20980;-78
2022/05/21 01:53:56;;;;;;;1.82;1.30;;;;;;;22.72;41.15;100869.83;1716769;82;21290;-78
2022/05/21 01:56:22;;;;;;;2.85;1.40;;;;;;;22.72;41.14;100868.44;1739157;80;21064;-78
2022/05/21 01:58:48;;;;;;;5.28;1.47;;;;;;;22.73;41.14;100869.26;1739278;80;21055;-78
2022/05/21 02:01:15;;;;;;;2.92;1.57;;;;;;;22.73;41.14;100870.08;1716290;80;21178;-78
2022/05/21 02:03:41;;;;;;;2.27;1.55;;;;;;;22.73;41.14;100866.48;1738821;80;20983;-78
2022/05/21 02:06:07;;;;;;;2.08;1.40;;;;;;;22.72;41.10;100858.73;1739182;81;21024;-78
2022/05/21 02:08:34;;;;;;;2.05;1.20;;;;;;;22.73;41.10;100860.94;1738984;82;21027;-78
2022/05/21 02:11:00;;;;;;;2.58;1.50;;;;;;;22.72;41.10;100855.14;1738942;81;21262;-78
2022/05/21 02:13:29;;;;;;;4.00;1.30;;;;;;;22.73;41.08;100856.78;1739046;80;21220;-78
2022/05/21 02:15:56;;;;;;;2.87;1.40;;;;;;;22.73;41.09;100852.05;1721530;80;21155;-78
2022/05/21 02:18:23;;;;;;;3.30;1.62;;;;;;;22.73;41.10;100849.84;1749342;81;21687;-78
2022/05/21 02:20:49;;;;;;;2.87;1.30;;;;;;;22.72;41.05;100849.03;1736070;82;21052;-79
2022/05/21 02:23:17;;;;;;;1.95;1.25;;;;;;;22.73;41.07;100849.28;1737616;81;21025;-79
2022/05/21 02:25:43;;;;;;;2.45;1.40;;;;;;;22.72;41.05;100844.87;1765612;80;21705;-79
2022/05/21 02:28:10;;;;;;;1.92;1.32;;;;;;;22.73;41.06;100853.44;1731534;82;21069;-79
2022/05/21 02:30:36;;;;;;;3.47;1.60;;;;;;;22.72;41.05;100855.96;1755348;81;21084;-79
2022/05/21 02:33:02;;;;;;;2.33;1.67;;;;;;;22.72;41.07;100850.41;1736210;82;21457;-79
2022/05/21 02:35:29;;;;;;;2.55;1.30;;;;;;;22.73;41.04;100859.55;1754627;81;21786;-79
2022/05/21 02:40:40;;;;;;;2.75;1.50;;;;;;;22.72;41.04;100862.89;1712645;82;21132;-79
2022/05/21 02:43:06;;;;;;;1.92;1.40;;;;;;;22.72;41.03;100867.63;1730210;82;21073;-79
2022/05/21 02:45:33;;;;;;;2.15;1.40;;;;;;;22.72;41.04;100869.83;1730411;82;22104;-79
2022/05/21 02:47:59;;;;;;;2.87;1.50;;;;;;;22.71;41.04;100865.42;1730591;82;21069;-79
2022/05/21 02:50:32;;;;;;;2.27;1.30;;;;;;;22.72;41.04;100861.51;1730240;82;21383;-79
2022/05/21 02:52:58;;;;;;;2.27;1.67;;;;;;;22.72;41.02;100856.53;1730279;82;21054;-79
2022/05/21 02:55:24;;;;;;;2.27;1.30;;;;;;;22.70;41.04;100854.67;1730746;82;21062;-79
2022/05/21 02:57:50;;;;;;;2.77;1.60;;;;;;;22.72;41.03;100857.34;1730447;82;22194;-79
2022/05/21 03:00:20;;;;;;;2.60;1.47;;;;;;;22.71;41.03;100846.58;1730598;82;21355;-79
2022/05/21 03:02:47;;;;;;;2.92;1.42;;;;;;;22.72;41.03;100848.21;1754446;81;21619;-79
2022/05/21 03:05:13;;;;;;;2.25;1.52;;;;;;;22.70;41.03;100858.23;1729999;82;20994;-79
2022/05/21 03:07:41;;;;;;;3.83;1.75;;;;;;;22.70;41.02;100855.47;1730645;82;21068;-79
2022/05/21 03:10:23;;;;;;;3.33;1.60;;;;;;;22.71;41.02;100859.88;1710034;82;21077;-79
2022/05/21 03:12:59;;;;;;;3.83;1.72;;;;;;;22.71;41.01;100854.89;1757523;80;21025;-79
2022/05/21 03:15:34;;;;;;;2.87;1.60;;;;;;;22.68;41.02;100845.25;1740389;82;22264;-78
2022/05/21 03:18:01;;;;;;;2.20;1.42;;;;;;;22.68;41.03;100837.51;1759287;80;21045;-78
2022/05/21 03:20:28;;;;;;;1.72;1.30;;;;;;;22.68;41.01;100836.13;1731612;82;21046;-78
2022/05/21 03:22:54;;;;;;;2.30;1.50;;;;;;;22.67;41.01;100835.30;1730456;82;21076;-78
2022/05/21 03:25:20;;;;;;;1.65;1.30;;;;;;;22.68;41.01;100837.51;1730333;82;21044;-78
2022/05/21 03:27:47;;;;;;;2.58;1.30;;;;;;;22.67;41.01;100848.34;1730582;82;21492;-78
2022/05/21 03:30:15;;;;;;;2.52;1.30;;;;;;;22.67;41.01;100838.08;1730548;82;20946;-78
2022/05/21 03:32:48;;;;;;;3.35;1.65;;;;;;;22.67;41.01;100848.34;1755335;80;21459;-78
2022/05/21 03:35:16;;;;;;;3.72;1.32;;;;;;;22.68;41.03;100847.21;1736856;82;21097;-78
2022/05/21 03:37:42;;;;;;;2.33;1.55;;;;;;;22.66;41.01;100840.59;1730660;82;21113;-78
2022/05/21 03:40:12;;;;;;;2.25;1.40;;;;;;;22.67;41.03;100849.17;1754352;81;21871;-78
2022/05/21 03:42:38;;;;;;;2.92;1.47;;;;;;;22.67;41.01;100839.46;1730531;82;21023;-78
2022/05/21 03:45:06;;;;;;;2.02;1.30;;;;;;;22.67;41.00;100843.63;1733893;82;21076;-78
2022/05/21 03:47:33;;;;;;;2.42;1.40;;;;;;;22.67;41.00;100849.17;1730402;82;21002;-78
2022/05/21 03:49:59;;;;;;;2.83;1.40;;;;;;;22.67;41.00;100842.23;1730487;82;21060;-78
2022/05/21 03:52:25;;;;;;;2.75;1.47;;;;;;;22.67;41.01;100839.46;1730633;82;21623;-78
2022/05/21 03:54:51;;;;;;;3.67;1.60;;;;;;;22.70;41.02;100842.20;1730093;82;21030;-78
2022/05/21 03:57:18;;;;;;;4.80;1.35;;;;;;;22.68;41.02;100839.71;1730564;82;21045;-78
2022/05/21 03:59:44;;;;;;;1.98;1.32;;;;;;;22.68;41.02;100843.87;1730828;82;21081;-78
2022/05/21 04:02:10;;;;;;;4.58;1.70;;;;;;;22.70;41.00;100840.81;1730308;82;21046;-79
2022/05/21 04:04:37;;;;;;;2.25;1.60;;;;;;;22.69;41.00;100841.95;1756706;81;21294;-79
2022/05/21 04:07:05;;;;;;;2.55;1.70;;;;;;;22.69;41.00;100844.72;1740383;82;21100;-79
2022/05/21 04:09:31;;;;;;;1.70;1.30;;;;;;;22.69;41.00;100846.92;1759284;81;20977;-79
2022/05/21 04:11:58;;;;;;;3.30;1.45;;;;;;;22.69;40.98;100850.27;1687813;82;21365;-78
2022/05/21 04:14:31;;;;;;;1.82;1.42;;;;;;;22.68;40.98;100852.19;1740562;82;21044;-78
2022/05/21 04:16:57;;;;;;;2.65;1.42;;;;;;;22.69;40.98;100854.42;1733853;82;21151;-78
2022/05/21 04:19:23;;;;;;;2.37;1.47;;;;;;;22.69;40.96;100863.56;1732697;82;21038;-79
2022/05/21 04:21:50;;;;;;;2.87;1.40;;;;;;;22.69;40.98;100863.56;1732493;82;21134;-79
2022/05/21 04:24:17;;;;;;;3.52;1.47;;;;;;;22.71;40.97;100868.77;1759056;81;21034;-79
2022/05/21 04:26:43;;;;;;;2.12;1.27;;;;;;;22.69;40.97;100861.36;1731865;82;21021;-79
2022/05/21 04:29:10;;;;;;;2.85;1.55;;;;;;;22.71;40.96;100865.42;1730441;82;21517;-79
2022/05/21 04:31:37;;;;;;;2.60;1.27;;;;;;;22.68;40.94;100862.47;1730153;82;21018;-78
2022/05/21 04:34:04;;;;;;;2.40;1.70;;;;;;;22.69;40.95;100867.73;1730569;82;21102;-78
2022/05/21 04:36:31;;;;;;;2.12;1.52;;;;;;;22.71;40.94;100857.67;1730301;82;21085;-78
2022/05/21 04:38:58;;;;;;;2.72;1.50;;;;;;;22.70;40.93;100863.78;1709319;82;21046;-78
2022/05/21 04:41:25;;;;;;;2.30;1.45;;;;;;;22.71;40.92;100865.42;1754800;81;21528;-78
2022/05/21 04:43:53;;;;;;;2.22;1.30;;;;;;;22.70;40.92;100858.84;1730347;82;21117;-78
2022/05/21 04:46:20;;;;;;;2.33;1.40;;;;;;;22.71;40.91;100862.65;1754059;81;20938;-79
2022/05/21 04:48:46;;;;;;;2.00;1.35;;;;;;;22.70;40.92;100856.85;1730510;82;21037;-79
2022/05/21 04:51:13;;;;;;;2.87;1.35;;;;;;;22.72;40.90;100860.13;1730680;82;21033;-79
2022/05/21 04:53:39;;;;;;;3.02;1.60;;;;;;;22.72;40.91;100863.47;1730274;82;21108;-79
2022/05/21 04:56:05;;;;;;;3.47;1.42;;;;;;;22.72;40.91;100864.85;1709624;82;21041;-79
2022/05/21 04:58:32;;;;;;;2.33;1.35;;;;;;;22.71;40.92;100859.05;1758093;81;20930;-79
2022/05/21 05:00:59;;;;;;;4.22;1.45;;;;;;;22.72;40.90;100860.13;1735521;82;21033;-79
2022/05/21 05:03:25;;;;;;;2.92;1.70;;;;;;;22.71;40.89;100855.72;1730561;82;20987;-79
2022/05/21 05:05:51;;;;;;;2.65;1.50;;;;;;;22.72;40.88;100849.03;1730567;82;21994;-79
2022/05/21 05:08:19;;;;;;;2.65;1.62;;;;;;;22.72;40.89;100836.55;1733716;82;21058;-79
2022/05/21 05:10:46;;;;;;;2.60;1.57;;;;;;;22.72;40.89;100847.64;1754683;81;21041;-79
2022/05/21 05:13:13;;;;;;;2.47;1.50;;;;;;;22.73;40.88;100845.12;1709716;82;21511;-79
2022/05/21 05:15:40;;;;;;;2.58;1.40;;;;;;;22.71;40.88;100840.45;1730220;82;21053;-79
2022/05/21 05:18:09;;;;;;;3.30;1.40;;;;;;;22.73;40.88;100838.75;1708816;82;21366;-79
2022/05/21 05:20:37;;;;;;;2.58;1.40;;;;;;;22.74;40.87;100841.77;1738363;82;21041;-79
2022/05/21 05:23:09;;;;;;;2.67;1.25;;;;;;;22.73;40.88;100843.73;1738285;82;21025;-79
2022/05/21 05:25:36;;;;;;;3.35;1.42;;;;;;;22.73;40.86;100839.57;1738197;82;20986;-79
2022/05/21 05:28:02;;;;;;;3.60;1.47;;;;;;;22.73;40.87;100834.59;1738466;82;20999;-79
2022/05/21 05:30:28;;;;;;;2.55;1.40;;;;;;;22.74;40.86;100829.30;1738180;82;21267;-79
2022/05/21 05:32:55;;;;;;;2.08;1.40;;;;;;;22.74;40.88;100833.45;1709327;82;21005;-79
2022/05/21 05:35:27;;;;;;;2.87;1.52;;;;;;;22.75;40.87;100834.48;1738336;82;21033;-79
2022/05/21 05:37:53;;;;;;;3.00;1.57;;;;;;;22.74;40.88;100829.30;1737959;82;21642;-79
2022/05/21 05:40:20;;;;;;;3.62;1.67;;;;;;;22.75;40.87;100832.28;1738474;82;21010;-79
2022/05/21 05:42:48;;;;;;;2.90;1.70;;;;;;;22.74;40.87;100824.53;1738532;82;21155;-79
2022/05/21 05:45:14;;;;;;;2.77;1.42;;;;;;;22.74;40.87;100830.08;1737931;81;21582;-79
2022/05/21 05:47:41;;;;;;;2.02;1.47;;;;;;;22.74;40.88;100823.14;1738156;81;21025;-79
2022/05/21 05:50:08;;;;;;;2.42;1.27;;;;;;;22.75;40.87;100827.55;1738466;82;21603;-79
2022/05/21 05:52:35;;;;;;;2.20;1.60;;;;;;;22.74;40.86;100817.59;1738366;82;21046;-79
2022/05/21 05:55:01;;;;;;;2.10;1.45;;;;;;;22.75;40.87;100817.03;1738209;81;21187;-79
2022/05/21 05:57:27;;;;;;;2.92;1.32;;;;;;;22.76;40.86;100817.28;1738323;82;21042;-79
2022/05/21 05:59:55;;;;;;;1.95;1.40;;;;;;;22.75;40.86;100821.19;1738210;82;21693;-79
2022/05/21 06:05:08;;;;;;;2.72;1.80;;;;;;;22.76;40.87;100820.87;1717844;82;21018;-78
2022/05/21 06:07:42;;;;;;;2.35;1.32;;;;;;;22.75;40.86;100814.25;1738551;82;21080;-79
2022/05/21 06:10:10;;;;;;;2.77;1.65;;;;;;;22.76;40.87;100815.32;1738234;82;21086;-79
2022/05/21 06:12:37;;;;;;;3.90;1.72;;;;;;;22.75;40.87;100809.52;1738385;82;21168;-79
2022/05/21 06:15:04;;;;;;;2.62;1.67;;;;;;;22.76;40.86;100807.00;1738246;82;21544;-79
2022/05/21 06:17:30;;;;;;;2.75;1.50;;;;;;;22.77;40.86;100814.75;1733632;82;21075;-79
2022/05/21 06:19:58;;;;;;;2.52;1.50;;;;;;;22.76;40.85;100813.94;1730591;82;21567;-79
2022/05/21 06:22:24;;;;;;;2.55;1.40;;;;;;;22.77;40.87;100811.98;1730762;82;21047;-79
2022/05/21 06:24:51;;;;;;;2.62;1.50;;;;;;;22.76;40.86;100812.55;1730385;82;21548;-79
2022/05/21 06:27:17;;;;;;;2.60;1.50;;;;;;;22.78;40.86;100815.00;1730627;82;21015;-79
2022/05/21 06:29:43;;;;;;;3.05;1.80;;;;;;;22.78;40.85;100814.19;1754794;81;21164;-79
2022/05/21 06:32:10;;;;;;;2.40;1.37;;;;;;;22.78;40.85;100815.57;1730513;82;21794;-79
2022/05/21 06:34:37;;;;;;;2.42;1.40;;;;;;;22.79;40.86;100822.16;1759222;81;21034;-79
2022/05/21 06:37:11;;;;;;;2.08;1.20;;;;;;;22.79;40.85;100813.05;1737624;82;21053;-79
2022/05/21 06:39:38;;;;;;;2.20;1.30;;;;;;;22.79;40.87;100813.83;1754339;81;21037;-79
2022/05/21 06:42:05;;;;;;;1.37;0.95;;;;;;;22.80;40.90;100800.78;1730627;82;21654;-79
2022/05/21 06:44:31;;;;;;;2.27;1.30;;;;;;;22.80;40.90;100796.63;1730592;82;21342;-79
2022/05/21 06:46:58;;;;;;;2.10;1.50;;;;;;;22.80;40.93;100797.44;1734728;81;21085;-79
2022/05/21 06:49:30;;;;;;;3.02;1.45;;;;;;;22.80;40.94;100795.23;1730271;82;21046;-79
2022/05/21 06:51:58;;;;;;;3.20;1.50;;;;;;;22.80;40.94;100794.66;1730721;82;21061;-79
2022/05/21 06:54:25;;;;;;;2.02;1.20;;;;;;;22.81;40.98;100777.45;1730483;82;21566;-79
2022/05/21 06:56:57;;;;;;;2.15;1.20;;;;;;;22.81;40.98;100783.00;1730050;82;21937;-79
2022/05/21 06:59:23;;;;;;;3.90;1.80;;;;;;;22.81;40.98;100786.59;1730565;82;21042;-79
2022/05/21 07:01:49;;;;;;;2.22;1.42;;;;;;;22.80;41.03;100782.75;1730238;82;21598;-79
2022/05/21 07:04:16;;;;;;;2.30;1.40;;;;;;;22.83;41.00;100780.12;1686047;82;21096;-79
2022/05/21 07:09:27;;;;;;;1.72;1.20;;;;;;;22.83;41.03;100773.19;1756210;80;22397;-79
2022/05/21 07:11:53;;;;;;;3.02;1.50;;;;;;;22.83;41.04;100773.19;1735206;82;21422;-79
2022/05/21 07:14:20;;;;;;;2.58;1.55;;;;;;;22.85;41.04;100770.09;1730866;82;21470;-79
2022/05/21 07:16:48;;;;;;;2.52;1.47;;;;;;;22.85;41.05;100768.13;1757012;81;21085;-79
2022/05/21 07:19:14;;;;;;;2.77;1.35;;;;;;;22.85;41.08;100757.03;1748409;82;21076;-79
2022/05/21 07:21:41;;;;;;;2.17;1.40;;;;;;;22.85;41.08;100757.03;1762095;81;21017;-79
2022/05/21 07:24:07;;;;;;;3.27;1.42;;;;;;;22.86;41.08;100763.40;1741913;81;21034;-79
2022/05/21 07:26:34;;;;;;;2.08;1.42;;;;;;;22.86;41.08;100752.30;1759750;81;21073;-79
2022/05/21 07:29:00;;;;;;;2.65;1.40;;;;;;;22.86;41.09;100750.34;1738110;82;21544;-79
2022/05/21 07:31:27;;;;;;;1.85;1.42;;;;;;;22.88;41.10;100756.92;1738029;82;21049;-79
2022/05/21 07:33:53;;;;;;;2.00;1.40;;;;;;;22.88;41.10;100748.03;1760053;80;21044;-79
2022/05/21 07:36:19;;;;;;;2.22;1.42;;;;;;;22.87;41.13;100757.53;1740705;82;21005;-79
2022/05/21 07:38:45;;;;;;;2.15;1.65;;;;;;;22.89;41.10;100758.56;1716755;82;21066;-79
2022/05/21 07:41:12;;;;;;;4.37;1.30;;;;;;;22.89;41.12;100751.63;1717075;82;21100;-79
2022/05/21 07:43:38;;;;;;;2.65;1.32;;;;;;;22.90;41.12;100751.87;1717265;82;21089;-79
2022/05/21 07:46:07;;;;;;;2.45;1.55;;;;;;;22.90;41.14;100758.23;1716783;82;21067;-79
2022/05/21 07:48:38;;;;;;;2.40;1.40;;;;;;;22.91;41.14;100757.67;1737873;82;20902;-79
2022/05/21 07:51:06;;;;;;;4.58;1.55;;;;;;;22.91;41.13;100762.64;1717979;82;21053;-79
2022/05/21 07:53:36;;;;;;;2.80;1.70;;;;;;;22.92;41.16;100751.77;1738037;82;21097;-79
2022/05/21 07:56:02;;;;;;;1.45;1.05;;;;;;;22.91;41.15;100750.16;1738385;82;22144;-79
2022/05/21 07:58:31;;;;;;;2.22;1.60;;;;;;;22.91;41.17;100746.00;1738053;82;21514;-79
2022/05/21 08:00:57;;;;;;;2.80;1.35;;;;;;;22.93;41.17;100742.30;1737747;82;21045;-79
2022/05/21 08:03:24;;;;;;;2.30;1.27;;;;;;;22.93;41.17;100743.69;1760233;80;21029;-79
2022/05/21 08:05:50;;;;;;;2.67;1.50;;;;;;;22.93;41.18;100740.91;1739923;82;21093;-79
2022/05/21 08:08:16;;;;;;;2.10;1.55;;;;;;;22.95;41.18;100741.98;1737794;82;21045;-79
2022/05/21 08:10:44;;;;;;;1.75;1.20;;;;;;;22.94;41.17;100739.77;1761374;80;21520;-79
2022/05/21 08:13:16;;;;;;;2.35;1.45;;;;;;;22.95;41.18;100735.05;1746366;82;21041;-79
2022/05/21 08:15:43;;;;;;;3.58;1.50;;;;;;;22.96;41.18;100738.03;1737815;82;21073;-79
2022/05/21 08:18:10;;;;;;;1.50;1.17;;;;;;;22.95;41.21;100737.25;1717689;82;21607;-79
2022/05/21 08:20:37;;;;;;;3.62;1.37;;;;;;;22.96;41.21;100735.25;1731826;81;21017;-79
2022/05/21 08:28:40;;;;;;;2.37;1.45;;;;;;;22.97;41.19;100721.63;1707736;84;21016;-78
2022/05/21 08:31:06;;;;;;;2.33;1.50;;;;;;;22.97;41.19;100728.00;1738922;81;20992;-78
2022/05/21 08:33:32;;;;;;;2.27;1.50;;;;;;;22.97;41.18;100725.80;1707804;83;21046;-78
2022/05/21 08:35:59;;;;;;;2.87;1.60;;;;;;;22.97;41.21;100727.18;1739015;81;21193;-78
2022/05/21 08:38:25;;;;;;;3.02;1.32;;;;;;;22.98;41.22;100728.81;1707740;82;21536;-78
2022/05/21 08:41:11;;;;;;;2.20;1.50;;;;;;;22.98;41.22;100728.81;1714101;82;34067;-78
2022/05/21 08:44:03;;;;;;;2.05;1.35;;;;;;;22.99;41.23;100723.52;1676313;84;21031;-78
2022/05/21 08:46:50;;;;;;;2.50;1.30;;;;;;;22.98;41.21;100717.14;1708026;83;21666;-78
2022/05/21 08:49:40;;;;;;;3.12;1.50;;;;;;;22.98;41.21;100721.87;1707693;83;22119;-78
2022/05/21 08:52:30;;;;;;;2.33;1.63;;;;;;;22.96;41.19;100718.04;1682646;83;21059;-78
2022/05/21 08:54:58;;;;;;;2.58;1.35;;;;;;;22.97;41.21;100721.06;1732876;81;20997;-78
2022/05/21 08:57:49;;;;;;;2.20;1.47;;;;;;;22.97;41.23;100713.31;1707695;82;21615;-78
2022/05/21 09:00:26;;;;;;;2.27;1.40;;;;;;;22.97;41.23;100710.53;1738490;81;21001;-78
2022/05/21 09:02:54;;;;;;;2.67;1.42;;;;;;;22.97;41.24;100706.38;1707738;82;21551;-78
2022/05/21 09:05:21;;;;;;;1.80;1.30;;;;;;;22.96;41.25;100706.12;1738114;81;21075;-78
2022/05/21 09:08:16;;;;;;;5.28;1.45;;;;;;;22.97;41.26;100703.59;1707780;82;21078;-78
2022/05/21 09:11:06;;;;;;;2.62;1.40;;;;;;;22.97;41.26;100699.44;1738401;82;21012;-78
2022/05/21 09:13:44;;;;;;;2.23;1.60;;;;;;;22.97;41.29;100691.11;1708084;83;21142;-78
2022/05/21 09:18:59;;;;;;;2.30;1.60;;;;;;;22.97;41.28;100701.64;1732498;82;21010;-79
2022/05/21 09:21:27;;;;;;;2.45;1.42;;;;;;;22.96;41.31;100693.64;1761670;81;21073;-79
2022/05/21 09:24:04;;;;;;;2.50;1.40;;;;;;;22.97;41.31;100695.27;1741519;82;21828;-79
2022/05/21 09:26:49;;;;;;;3.37;1.52;;;;;;;22.96;41.30;100693.07;1737651;82;21064;-78
2022/05/21 09:29:31;;;;;;;2.45;1.65;;;;;;;22.98;41.32;100687.20;1759043;80;21884;-78
2022/05/21 09:31:58;;;;;;;2.22;1.40;;;;;;;22.97;41.34;100691.93;1743686;82;21069;-78
2022/05/21 09:34:28;;;;;;;2.40;1.40;;;;;;;22.97;41.32;100678.05;1759455;81;21037;-78
2022/05/21 09:36:55;;;;;;;2.00;1.40;;;;;;;22.97;41.34;100681.40;1744566;82;21069;-79
2022/05/21 09:39:34;;;;;;;4.22;1.40;;;;;;;22.97;41.35;100679.44;1737700;82;21251;-79
2022/05/21 09:45:24;;;;;;;1.75;1.27;;;;;;;22.98;41.34;100680.26;1764200;80;21101;-79
2022/05/21 09:48:07;;;;;;;2.10;1.40;;;;;;;22.97;41.35;100674.47;1742080;81;21087;-78
2022/05/21 09:50:51;;;;;;;1.57;1.12;;;;;;;22.97;41.35;100675.28;1744240;82;20925;-78
2022/05/21 09:53:36;;;;;;;2.65;1.30;;;;;;;22.97;41.36;100674.47;1744192;82;21059;-78
2022/05/21 09:56:28;;;;;;;2.35;1.47;;;;;;;22.96;41.36;100669.48;1744033;81;21210;-78
2022/05/21 09:59:17;;;;;;;2.37;1.55;;;;;;;22.96;41.37;100652.84;1744406;82;21092;-78
2022/05/21 10:01:49;;;;;;;2.98;1.10;;;;;;;22.96;41.37;100645.91;1744074;81;21082;-78
2022/05/21 10:04:40;;;;;;;2.22;1.37;;;;;;;22.96;41.37;100645.91;1744434;81;21064;-78
2022/05/21 10:12:53;;;;;;;2.10;1.37;;;;;;;22.95;41.39;100641.53;1743952;81;21041;-79
2022/05/21 10:15:23;;;;;;;2.58;1.60;;;;;;;22.95;41.39;100634.59;1723653;82;21088;-79
2022/05/21 10:18:01;;;;;;;2.45;1.32;;;;;;;22.96;41.39;100632.03;1743454;82;21810;-79
2022/05/21 10:20:43;;;;;;;2.20;1.40;;;;;;;22.96;41.42;100622.89;1736813;82;20998;-78
2022/05/21 10:23:17;;;;;;;1.80;1.22;;;;;;;22.95;41.42;100619.33;1737000;82;21806;-78
2022/05/21 10:26:01;;;;;;;3.10;1.30;;;;;;;22.96;41.42;100609.84;1736575;82;21097;-79
2022/05/21 10:28:47;;;;;;;2.08;1.35;;;;;;;22.96;41.41;100611.22;1736734;82;21061;-78
2022/05/21 10:31:27;;;;;;;2.20;1.40;;;;;;;22.97;41.42;100612.04;1736584;82;21073;-78
2022/05/21 10:34:16;;;;;;;2.85;1.60;;;;;;;22.96;41.39;100598.73;1736872;82;21582;-79
2022/05/21 10:37:09;;;;;;;2.33;1.30;;;;;;;22.96;41.40;100592.38;1736777;81;21519;-78
2022/05/21 10:39:59;;;;;;;2.27;1.30;;;;;;;22.96;41.40;100584.05;1736437;82;21007;-78
2022/05/21 10:42:43;;;;;;;1.93;1.20;;;;;;;22.97;41.38;100588.45;1737029;82;21041;-78
2022/05/21 10:45:24;;;;;;;2.87;1.32;;;;;;;22.95;41.38;100586.04;1737008;82;21784;-78
2022/05/21 10:48:11;;;;;;;1.65;1.30;;;;;;;22.97;41.39;100585.68;1736811;81;21033;-78
2022/05/21 10:51:03;;;;;;;2.25;1.30;;;;;;;22.96;41.39;100586.83;1737290;81;21459;-78
2022/05/21 10:53:41;;;;;;;2.12;1.45;;;;;;;22.95;41.39;100576.91;1721996;82;21060;-78
2022/05/21 10:56:18;;;;;;;2.37;1.30;;;;;;;22.96;41.40;100578.50;1737047;82;21096;-78
2022/05/21 10:59:26;;;;;;;2.90;1.27;;;;;;;22.95;41.39;100577.72;1736809;81;21520;-78
2022/05/21 11:02:30;;;;;;;2.02;1.35;;;;;;;22.96;41.42;100582.09;1736917;82;21060;-78
2022/05/21 11:05:14;;;;;;;1.65;1.10;;;;;;;22.95;41.38;100576.91;1736762;82;21117;-78
2022/05/21 11:08:08;;;;;;;2.22;1.40;;;;;;;22.95;41.38;100583.84;1735840;81;21069;-78
2022/05/21 11:10:46;;;;;;;1.57;1.12;;;;;;;22.95;41.40;100580.49;1736503;81;21092;-78
2022/05/21 11:13:29;;;;;;;2.10;1.30;;;;;;;22.95;41.39;100571.36;1736664;82;21130;-78
2022/05/21 11:15:59;;;;;;;2.67;1.77;;;;;;;22.94;41.39;100563.60;1736767;82;21024;-78
2022/05/21 11:18:44;;;;;;;;;;;;;;;22.96;41.40;100566.02;1721232;82;21522;-78
2022/05/21 11:21:31;;;;;;;3.40;1.47;;;;;;;22.95;41.40;100553.32;1748888;82;20229;-78
2022/05/21 11:24:17;;;;;;;2.30;1.10;;;;;;;22.94;41.40;100543.37;1749282;81;21630;-78
2022/05/21 11:26:52;;;;;;;1.95;1.32;;;;;;;22.94;41.39;100550.30;1748938;81;21040;-78
2022/05/21 11:29:41;;;;;;;2.17;1.50;;;;;;;22.95;41.40;100546.38;1749402;82;21036;-78
2022/05/21 11:38:32;;;;;;;2.58;1.37;;;;;;;22.96;41.40;100563.24;1714291;81;21104;-78
2022/05/21 11:41:29;;;;;;;2.12;1.45;;;;;;;22.96;41.36;100554.92;1744436;82;21482;-79
2022/05/21 11:47:18;;;;;;;2.22;1.45;;;;;;;22.96;41.35;100555.73;1748963;81;21168;-78
2022/05/21 11:50:04;;;;;;;2.45;1.40;;;;;;;22.95;41.35;100548.59;1748965;80;21040;-78
2022/05/21 11:52:38;;;;;;;1.98;1.35;;;;;;;22.95;41.35;100538.06;1749260;81;21048;-78
2022/05/21 11:55:22;;;;;;;2.33;1.50;;;;;;;22.95;41.35;100526.39;1749279;81;21032;-78
2022/05/21 11:58:05;;;;;;;2.22;1.50;;;;;;;22.96;41.35;100521.63;1749432;81;21010;-78
2022/05/21 12:00:44;;;;;;;2.52;1.32;;;;;;;22.97;41.31;100523.26;1748732;81;21200;-78
2022/05/21 12:03:13;;;;;;;3.12;1.40;;;;;;;22.97;41.36;100524.64;1748897;82;21080;-78
2022/05/21 12:05:50;;;;;;;3.40;1.50;;;;;;;22.97;41.34;100524.07;1749237;82;21060;-78
2022/05/21 12:08:33;;;;;;;2.40;1.50;;;;;;;22.97;41.35;100514.94;1749490;81;21041;-78
2022/05/21 12:11:11;;;;;;;1.80;1.40;;;;;;;22.98;41.34;100515.99;1748944;81;21404;-78
2022/05/21 12:14:01;;;;;;;1.92;1.40;;;;;;;22.98;41.32;100509.62;1749054;81;21162;-78
2022/05/21 12:16:33;;;;;;;1.87;1.07;;;;;;;22.99;41.31;100500.16;1749299;82;21462;-78
2022/05/21 12:19:00;;;;;;;2.45;1.50;;;;;;;22.99;41.28;100491.84;1745473;81;22038;-78
2022/05/21 12:21:36;;;;;;;3.17;1.40;;;;;;;22.99;41.27;100496.00;1738950;82;21084;-78
2022/05/21 12:24:06;;;;;;;2.52;1.50;;;;;;;23.00;41.25;100497.02;1738896;82;21048;-78